
Distance (Route):
Temperature : -24.0°C
Humidity : 32.4%
Pressure : 380.3hPa| Receiver | Frames | First received | Last received |
|---|---|---|---|
| AUTORXJP | 154 | 2026-08-31 12:15:55 | 2026-08-31 13:37:14 |
| Receiver | Date | Latitude | Longitude | Direction | Speed | Altitude | Climb | Temperature | Humidity | Pressure | Voltage | Killtimer | Uptime | BKT | XDATA |
|---|---|---|---|---|---|---|---|---|---|---|---|---|---|---|---|
| AUTORXJP | 2026-08-31 13:37:14 | 44.21560 | 6.21941 | 85° | 110km/h | 7947m | -6.2m/s | -24.0°C | 32.4% | 380.3hPa | 0V | 00:00:00 | 00:00:00 | 00:00:00 | |
| AUTORXJP | 2026-08-31 13:36:43 | 44.21529 | 6.21480 | 84° | 111km/h | 8010m | -3.8m/s | -24.4°C | 33.2% | 377.3hPa | 0V | 00:00:00 | 00:00:00 | 00:00:00 | |
| AUTORXJP | 2026-08-31 13:36:12 | 44.21449 | 6.20212 | 86° | 115km/h | 8166m | -5.4m/s | -25.8°C | 32.5% | 369.2hPa | 0V | 00:00:00 | 00:00:00 | 00:00:00 | |
| AUTORXJP | 2026-08-31 13:35:41 | 44.21382 | 6.19056 | 84° | 119km/h | 8307m | -5.5m/s | -26.9°C | 38.2% | 362.0hPa | 0V | 00:00:00 | 00:00:00 | 00:00:00 | |
| AUTORXJP | 2026-08-31 13:35:10 | 44.21302 | 6.17831 | 84° | 122km/h | 8459m | -4.0m/s | -28.1°C | 44.5% | 354.5hPa | 0V | 00:00:00 | 00:00:00 | 00:00:00 | |
| AUTORXJP | 2026-08-31 13:34:39 | 44.21210 | 6.16507 | 82° | 122km/h | 8622m | -4.4m/s | -29.4°C | 39.7% | 346.5hPa | 0V | 00:00:00 | 00:00:00 | 00:00:00 | |
| AUTORXJP | 2026-08-31 13:34:08 | 44.21102 | 6.15176 | 83° | 124km/h | 8786m | -4.5m/s | -30.8°C | 39.5% | 338.7hPa | 0V | 00:00:00 | 00:00:00 | 00:00:00 | |
| AUTORXJP | 2026-08-31 13:33:37 | 44.20981 | 6.13814 | 83° | 126km/h | 8953m | -4.7m/s | -32.2°C | 39.0% | 330.8hPa | 0V | 00:00:00 | 00:00:00 | 00:00:00 | |
| AUTORXJP | 2026-08-31 13:33:06 | 44.20841 | 6.12392 | 80° | 135km/h | 9128m | -5.5m/s | -33.6°C | 40.2% | 322.6hPa | 0V | 00:00:00 | 00:00:00 | 00:00:00 | |
| AUTORXJP | 2026-08-31 13:32:35 | 44.20669 | 6.10912 | 80° | 137km/h | 9304m | -4.3m/s | -35.0°C | 46.0% | 314.5hPa | 0V | 00:00:00 | 00:00:00 | 00:00:00 | |
| AUTORXJP | 2026-08-31 13:32:04 | 44.20492 | 6.09434 | 81° | 137km/h | 9481m | -5.3m/s | -36.5°C | 45.5% | 306.7hPa | 0V | 00:00:00 | 00:00:00 | 00:00:00 | |
| AUTORXJP | 2026-08-31 13:31:32 | 44.20324 | 6.07947 | 81° | 141km/h | 9648m | -5.9m/s | -38.0°C | 46.6% | 299.2hPa | 0V | 00:00:00 | 00:00:00 | 00:00:00 | |
| AUTORXJP | 2026-08-31 13:31:01 | 44.20152 | 6.06453 | 81° | 137km/h | 9815m | -3.5m/s | -39.3°C | 37.5% | 292.2hPa | 0V | 00:00:00 | 00:00:00 | 00:00:00 | |
| AUTORXJP | 2026-08-31 13:30:30 | 44.19986 | 6.04927 | 80° | 137km/h | 9981m | -3.8m/s | -40.4°C | 35.1% | 285.1hPa | 0V | 00:00:00 | 00:00:00 | 00:00:00 | |
| AUTORXJP | 2026-08-31 13:30:00 | 44.19794 | 6.03462 | 78° | 137km/h | 10143m | -4.7m/s | -41.7°C | 35.7% | 278.5hPa | 0V | 00:00:00 | 00:00:00 | 00:00:00 | |
| AUTORXJP | 2026-08-31 13:29:28 | 44.19546 | 6.02035 | 74° | 130km/h | 10300m | -4.9m/s | -43.2°C | 33.8% | 272.1hPa | 0V | 00:00:00 | 00:00:00 | 00:00:00 | |
| AUTORXJP | 2026-08-31 13:28:57 | 44.19282 | 6.00598 | 74° | 135km/h | 10454m | -5.1m/s | -44.3°C | 25.3% | 265.9hPa | 0V | 00:00:00 | 00:00:00 | 00:00:00 | |
| AUTORXJP | 2026-08-31 13:28:26 | 44.18993 | 5.99083 | 75° | 142km/h | 10611m | -4.4m/s | -44.8°C | 18.3% | 259.8hPa | 0V | 00:00:00 | 00:00:00 | 00:00:00 | |
| AUTORXJP | 2026-08-31 13:27:55 | 44.18711 | 5.97529 | 76° | 153km/h | 10772m | -3.7m/s | -45.5°C | 16.1% | 253.7hPa | 0V | 00:00:00 | 00:00:00 | 00:00:00 | |
| AUTORXJP | 2026-08-31 13:27:24 | 44.18379 | 5.95909 | 73° | 153km/h | 10930m | -3.5m/s | -46.1°C | 16.5% | 247.6hPa | 0V | 00:00:00 | 00:00:00 | 00:00:00 | |
| AUTORXJP | 2026-08-31 13:26:54 | 44.18000 | 5.94262 | 73° | 157km/h | 11100m | -3.6m/s | -47.2°C | 17.8% | 241.4hPa | 0V | 00:00:00 | 00:00:00 | 00:00:00 | |
| AUTORXJP | 2026-08-31 13:26:22 | 44.17650 | 5.92581 | 73° | 161km/h | 11275m | -4.3m/s | -48.5°C | 15.9% | 235.2hPa | 0V | 00:00:00 | 00:00:00 | 00:00:00 | |
| AUTORXJP | 2026-08-31 13:25:51 | 44.17281 | 5.90926 | 72° | 155km/h | 11453m | -5.4m/s | -49.6°C | 16.1% | 228.8hPa | 0V | 00:00:00 | 00:00:00 | 00:00:00 | |
| AUTORXJP | 2026-08-31 13:24:48 | 44.16509 | 5.87620 | 71° | 161km/h | 11844m | -6.2m/s | -52.3°C | 17.6% | 215.4hPa | 0V | 00:00:00 | 00:00:00 | 00:00:00 | |
| AUTORXJP | 2026-08-31 13:24:17 | 44.16113 | 5.85883 | 70° | 161km/h | 12052m | -5.2m/s | -53.8°C | 16.9% | 208.6hPa | 0V | 00:00:00 | 00:00:00 | 00:00:00 | |
| AUTORXJP | 2026-08-31 13:23:46 | 44.15695 | 5.84246 | 70° | 159km/h | 12255m | -6.8m/s | -55.1°C | 14.6% | 202.1hPa | 0V | 00:00:00 | 00:00:00 | 00:00:00 | |
| AUTORXJP | 2026-08-31 13:23:15 | 44.15238 | 5.82629 | 68° | 161km/h | 12465m | -6.9m/s | -56.3°C | 12.7% | 195.6hPa | 0V | 00:00:00 | 00:00:00 | 00:00:00 | |
| AUTORXJP | 2026-08-31 13:22:44 | 44.14814 | 5.81001 | 72° | 159km/h | 12674m | -6.3m/s | -57.0°C | 11.0% | 189.3hPa | 0V | 00:00:00 | 00:00:00 | 00:00:00 | |
| AUTORXJP | 2026-08-31 13:22:13 | 44.14439 | 5.79428 | 72° | 150km/h | 12885m | -5.8m/s | -57.9°C | 9.9% | 183.0hPa | 0V | 00:00:00 | 00:00:00 | 00:00:00 | |
| AUTORXJP | 2026-08-31 13:21:42 | 44.14128 | 5.77874 | 73° | 144km/h | 13107m | -6.7m/s | -58.9°C | 8.8% | 176.7hPa | 0V | 00:00:00 | 00:00:00 | 00:00:00 | |
| AUTORXJP | 2026-08-31 13:21:11 | 44.13845 | 5.76375 | 74° | 137km/h | 13330m | -5.0m/s | -59.8°C | 6.5% | 170.5hPa | 0V | 00:00:00 | 00:00:00 | 00:00:00 | |
| AUTORXJP | 2026-08-31 13:20:40 | 44.13609 | 5.74934 | 75° | 128km/h | 13561m | -7.1m/s | -60.2°C | 4.1% | 164.3hPa | 0V | 00:00:00 | 00:00:00 | 00:00:00 | |
| AUTORXJP | 2026-08-31 13:20:12 | 44.13379 | 5.73525 | 77° | 131km/h | 13789m | -6.3m/s | -60.2°C | 2.4% | 158.3hPa | 0V | 00:00:00 | 00:00:00 | 00:00:00 | |
| AUTORXJP | 2026-08-31 13:19:38 | 44.13181 | 5.72135 | 80° | 124km/h | 14027m | -6.4m/s | -59.7°C | 0.8% | 152.6hPa | 0V | 00:00:00 | 00:00:00 | 00:00:00 | |
| AUTORXJP | 2026-08-31 13:19:07 | 44.13045 | 5.70844 | 80° | 110km/h | 14264m | -7.0m/s | -59.8°C | 0.0% | 146.9hPa | 0V | 00:00:00 | 00:00:00 | 00:00:00 | |
| AUTORXJP | 2026-08-31 13:18:35 | 44.12928 | 5.69736 | 80° | 100km/h | 14505m | -5.8m/s | -59.7°C | 0.0% | 141.3hPa | 0V | 00:00:00 | 00:00:00 | 00:00:00 | |
| AUTORXJP | 2026-08-31 13:18:04 | 44.12719 | 5.68677 | 76° | 99km/h | 14751m | -6.8m/s | -59.6°C | 0.0% | 135.8hPa | 0V | 00:00:00 | 00:00:00 | 00:00:00 | |
| AUTORXJP | 2026-08-31 13:17:33 | 44.12537 | 5.67643 | 76° | 80km/h | 15010m | -6.3m/s | -58.8°C | 0.0% | 130.3hPa | 0V | 00:00:00 | 00:00:00 | 00:00:00 | |
| AUTORXJP | 2026-08-31 13:16:31 | 44.12227 | 5.65905 | 78° | 71km/h | 15532m | -6.3m/s | -59.5°C | 0.0% | 119.9hPa | 0V | 00:00:00 | 00:00:00 | 00:00:00 | |
| AUTORXJP | 2026-08-31 13:16:00 | 44.12105 | 5.65202 | 74° | 64km/h | 15807m | -7.3m/s | -59.9°C | 0.0% | 114.8hPa | 0V | 00:00:00 | 00:00:00 | 00:00:00 | |
| AUTORXJP | 2026-08-31 13:15:29 | 44.11908 | 5.64576 | 62° | 66km/h | 16085m | -6.8m/s | -59.7°C | 0.0% | 109.7hPa | 0V | 00:00:00 | 00:00:00 | 00:00:00 | |
| AUTORXJP | 2026-08-31 13:14:58 | 44.11712 | 5.64122 | 42° | 49km/h | 16369m | -7.5m/s | -57.7°C | 0.0% | 104.8hPa | 0V | 00:00:00 | 00:00:00 | 00:00:00 | |
| AUTORXJP | 2026-08-31 13:14:27 | 44.11388 | 5.63695 | 52° | 64km/h | 16665m | -8.4m/s | -58.1°C | 0.0% | 100.1hPa | 0V | 00:00:00 | 00:00:00 | 00:00:00 | |
| AUTORXJP | 2026-08-31 13:13:56 | 44.11244 | 5.63091 | 77° | 53km/h | 16964m | -9.8m/s | -57.4°C | 0.0% | 95.4hPa | 0V | 00:00:00 | 00:00:00 | 00:00:00 | |
| AUTORXJP | 2026-08-31 13:13:25 | 44.11170 | 5.62551 | 75° | 53km/h | 17278m | -8.5m/s | -59.4°C | 0.0% | 90.8hPa | 0V | 00:00:00 | 00:00:00 | 00:00:00 | |
| AUTORXJP | 2026-08-31 13:12:54 | 44.11144 | 5.61994 | 95° | 37km/h | 17589m | -8.0m/s | -57.7°C | 0.0% | 86.3hPa | 0V | 00:00:00 | 00:00:00 | 00:00:00 | |
| AUTORXJP | 2026-08-31 13:12:23 | 44.11140 | 5.61695 | 46° | 18km/h | 17926m | -10.3m/s | -56.3°C | 0.0% | 81.9hPa | 0V | 00:00:00 | 00:00:00 | 00:00:00 | |
| AUTORXJP | 2026-08-31 13:11:51 | 44.10960 | 5.61469 | 33° | 40km/h | 18271m | -10.2m/s | -56.2°C | 0.0% | 77.6hPa | 0V | 00:00:00 | 00:00:00 | 00:00:00 | |
| AUTORXJP | 2026-08-31 13:11:20 | 44.10776 | 5.61055 | 88° | 38km/h | 18623m | -9.6m/s | -55.2°C | 0.0% | 73.4hPa | 0V | 00:00:00 | 00:00:00 | 00:00:00 | |
| AUTORXJP | 2026-08-31 13:10:49 | 44.10847 | 5.60715 | 97° | 24km/h | 19002m | -10.9m/s | -55.8°C | 0.0% | 69.2hPa | 0V | 00:00:00 | 00:00:00 | 00:00:00 | |
| AUTORXJP | 2026-08-31 13:10:18 | 44.10878 | 5.60478 | 145° | 7km/h | 19376m | -12.0m/s | -55.2°C | 0.0% | 65.2hPa | 0V | 00:00:00 | 00:00:00 | 00:00:00 | |
| AUTORXJP | 2026-08-31 13:09:47 | 44.10814 | 5.60448 | 33° | 26km/h | 19772m | -10.7m/s | -56.7°C | 0.0% | 61.3hPa | 0V | 00:00:00 | 00:00:00 | 00:00:00 | |
| AUTORXJP | 2026-08-31 13:09:16 | 44.10756 | 5.60249 | 10° | 9km/h | 20177m | -12.3m/s | -55.8°C | 0.0% | 57.5hPa | 0V | 00:00:00 | 00:00:00 | 00:00:00 | |
| AUTORXJP | 2026-08-31 13:08:45 | 44.10738 | 5.60193 | 187° | 4km/h | 20602m | -13.1m/s | -54.8°C | 0.0% | 53.8hPa | 0V | 00:00:00 | 00:00:00 | 00:00:00 | |
| AUTORXJP | 2026-08-31 13:08:14 | 44.10668 | 5.60265 | 333° | 31km/h | 21048m | -13.1m/s | -55.1°C | 0.0% | 50.1hPa | 0V | 00:00:00 | 00:00:00 | 00:00:00 | |
| AUTORXJP | 2026-08-31 13:07:43 | 44.10492 | 5.60371 | 319° | 11km/h | 21516m | -14.7m/s | -54.6°C | 0.0% | 46.6hPa | 0V | 00:00:00 | 00:00:00 | 00:00:00 | |
| AUTORXJP | 2026-08-31 13:07:12 | 44.10424 | 5.60470 | 329° | 22km/h | 22010m | -15.1m/s | -53.8°C | 0.0% | 43.1hPa | 0V | 00:00:00 | 00:00:00 | 00:00:00 | |
| AUTORXJP | 2026-08-31 13:06:41 | 44.10298 | 5.60500 | 54° | 24km/h | 22531m | -16.0m/s | -52.2°C | 0.0% | 39.8hPa | 0V | 00:00:00 | 00:00:00 | 00:00:00 | |
| AUTORXJP | 2026-08-31 13:06:10 | 44.10258 | 5.60424 | 272° | 9km/h | 23108m | -16.8m/s | -52.9°C | 0.0% | 36.4hPa | 0V | 00:00:00 | 00:00:00 | 00:00:00 | |
| AUTORXJP | 2026-08-31 13:05:39 | 44.10165 | 5.60428 | 50° | 7km/h | 23681m | -19.4m/s | -51.7°C | 0.0% | 33.3hPa | 0V | 00:00:00 | 00:00:00 | 00:00:00 | |
| AUTORXJP | 2026-08-31 13:05:07 | 44.10118 | 5.60410 | 344° | 16km/h | 24308m | -19.4m/s | -52.9°C | 0.0% | 30.2hPa | 0V | 00:00:00 | 00:00:00 | 00:00:00 | |
| AUTORXJP | 2026-08-31 13:04:36 | 44.10027 | 5.60335 | 90° | 4km/h | 24984m | -19.2m/s | -51.4°C | 0.0% | 27.2hPa | 0V | 00:00:00 | 00:00:00 | 00:00:00 | |
| AUTORXJP | 2026-08-31 13:04:05 | 44.10027 | 5.60407 | 260° | 5km/h | 25649m | -21.9m/s | -50.0°C | 0.0% | 24.5hPa | 0V | 00:00:00 | 00:00:00 | 00:00:00 | |
| AUTORXJP | 2026-08-31 13:03:34 | 44.10012 | 5.60392 | 87° | 11km/h | 26409m | -23.3m/s | -47.8°C | 0.0% | 21.9hPa | 0V | 00:00:00 | 00:00:00 | 00:00:00 | |
| AUTORXJP | 2026-08-31 13:03:03 | 44.10009 | 5.60441 | 350° | 4km/h | 27186m | -25.6m/s | -47.6°C | 0.0% | 19.4hPa | 0V | 00:00:00 | 00:00:00 | 00:00:00 | |
| AUTORXJP | 2026-08-31 13:02:32 | 44.09907 | 5.60448 | 353° | 22km/h | 28002m | -26.0m/s | -46.0°C | 0.0% | 17.2hPa | 0V | 00:00:00 | 00:00:00 | 00:00:00 | |
| AUTORXJP | 2026-08-31 13:02:01 | 44.09766 | 5.60368 | 36° | 18km/h | 28847m | -26.9m/s | -44.5°C | 0.0% | 15.1hPa | 0V | 00:00:00 | 00:00:00 | 00:00:00 | |
| AUTORXJP | 2026-08-31 13:01:30 | 44.09727 | 5.60258 | 59° | 9km/h | 29702m | -26.8m/s | -45.5°C | 0.0% | 13.3hPa | 0V | 00:00:00 | 00:00:00 | 00:00:00 | |
| AUTORXJP | 2026-08-31 13:00:59 | 44.09735 | 5.60124 | 111° | 4km/h | 30551m | -24.5m/s | -42.3°C | 0.0% | 11.7hPa | 0V | 00:00:00 | 00:00:00 | 00:00:00 | |
| AUTORXJP | 2026-08-31 13:00:28 | 44.09634 | 5.60051 | 293° | 4km/h | 31356m | -4.8m/s | -37.9°C | 0.0% | 10.4hPa | 0V | 00:00:00 | 00:00:00 | 00:00:00 | |
| AUTORXJP | 2026-08-31 12:59:57 | 44.09579 | 5.59921 | 60° | 37km/h | 31188m | 5.2m/s | -40.0°C | 0.0% | 10.7hPa | 0V | 00:00:00 | 00:00:00 | 00:00:00 | |
| AUTORXJP | 2026-08-31 12:59:26 | 44.09509 | 5.59696 | 44° | 27km/h | 31005m | 6.6m/s | -40.3°C | 0.0% | 11.0hPa | 0V | 00:00:00 | 00:00:00 | 00:00:00 | |
| AUTORXJP | 2026-08-31 12:58:55 | 44.09359 | 5.59577 | 46° | 24km/h | 30821m | 6.5m/s | -40.8°C | 0.0% | 11.3hPa | 0V | 00:00:00 | 00:00:00 | 00:00:00 | |
| AUTORXJP | 2026-08-31 12:58:24 | 44.09308 | 5.59589 | 153° | 20km/h | 30641m | 6.3m/s | -41.7°C | 0.0% | 11.6hPa | 0V | 00:00:00 | 00:00:00 | 00:00:00 | |
| AUTORXJP | 2026-08-31 12:57:53 | 44.09375 | 5.59547 | 200° | 5km/h | 30466m | 6.0m/s | -42.5°C | 0.0% | 11.9hPa | 0V | 00:00:00 | 00:00:00 | 00:00:00 | |
| AUTORXJP | 2026-08-31 12:57:21 | 44.09427 | 5.59455 | 101° | 18km/h | 30290m | 6.2m/s | -44.1°C | 0.0% | 12.2hPa | 0V | 00:00:00 | 00:00:00 | 00:00:00 | |
| AUTORXJP | 2026-08-31 12:56:50 | 44.09468 | 5.59231 | 24° | 18km/h | 30119m | 3.7m/s | -44.4°C | 0.0% | 12.6hPa | 0V | 00:00:00 | 00:00:00 | 00:00:00 | |
| AUTORXJP | 2026-08-31 12:56:19 | 44.09444 | 5.59055 | 55° | 35km/h | 29956m | 5.7m/s | -44.7°C | 0.0% | 12.9hPa | 0V | 00:00:00 | 00:00:00 | 00:00:00 | |
| AUTORXJP | 2026-08-31 12:55:48 | 44.09400 | 5.58967 | 77° | 22km/h | 29786m | 6.2m/s | -45.2°C | 0.0% | 13.2hPa | 0V | 00:00:00 | 00:00:00 | 00:00:00 | |
| AUTORXJP | 2026-08-31 12:55:17 | 44.09372 | 5.58772 | 34° | 16km/h | 29603m | 4.4m/s | -44.4°C | 0.0% | 13.6hPa | 0V | 00:00:00 | 00:00:00 | 00:00:00 | |
| AUTORXJP | 2026-08-31 12:54:46 | 44.09291 | 5.58675 | 39° | 27km/h | 29420m | 6.4m/s | -44.1°C | 0.0% | 13.9hPa | 0V | 00:00:00 | 00:00:00 | 00:00:00 | |
| AUTORXJP | 2026-08-31 12:54:15 | 44.09207 | 5.58573 | 73° | 15km/h | 29241m | 6.5m/s | -43.9°C | 0.0% | 14.3hPa | 0V | 00:00:00 | 00:00:00 | 00:00:00 | |
| AUTORXJP | 2026-08-31 12:53:44 | 44.09253 | 5.58480 | 194° | 18km/h | 29064m | 3.7m/s | -44.1°C | 0.0% | 14.7hPa | 0V | 00:00:00 | 00:00:00 | 00:00:00 | |
| AUTORXJP | 2026-08-31 12:53:13 | 44.09190 | 5.58352 | 51° | 22km/h | 28890m | 7.5m/s | -44.2°C | 0.0% | 15.1hPa | 0V | 00:00:00 | 00:00:00 | 00:00:00 | |
| AUTORXJP | 2026-08-31 12:52:42 | 44.09057 | 5.58235 | 22° | 16km/h | 28710m | 3.9m/s | -44.3°C | 0.0% | 15.5hPa | 0V | 00:00:00 | 00:00:00 | 00:00:00 | |
| AUTORXJP | 2026-08-31 12:52:11 | 44.08872 | 5.58197 | 341° | 29km/h | 28542m | 6.2m/s | -44.7°C | 0.0% | 15.9hPa | 0V | 00:00:00 | 00:00:00 | 00:00:00 | |
| AUTORXJP | 2026-08-31 12:51:40 | 44.08739 | 5.58147 | 339° | 24km/h | 28371m | 6.5m/s | -45.2°C | 0.0% | 16.4hPa | 0V | 00:00:00 | 00:00:00 | 00:00:00 | |
| AUTORXJP | 2026-08-31 12:51:08 | 44.08610 | 5.58124 | 26° | 16km/h | 28199m | 6.0m/s | -45.3°C | 0.0% | 16.8hPa | 0V | 00:00:00 | 00:00:00 | 00:00:00 | |
| AUTORXJP | 2026-08-31 12:50:37 | 44.08428 | 5.58108 | 352° | 20km/h | 28018m | 6.0m/s | -46.2°C | 0.0% | 17.2hPa | 0V | 00:00:00 | 00:00:00 | 00:00:00 | |
| AUTORXJP | 2026-08-31 12:50:06 | 44.08258 | 5.58194 | 331° | 9km/h | 27840m | 6.1m/s | -46.7°C | 0.0% | 17.7hPa | 0V | 00:00:00 | 00:00:00 | 00:00:00 | |
| AUTORXJP | 2026-08-31 12:49:35 | 44.08126 | 5.58220 | 309° | 13km/h | 27655m | 6.8m/s | -46.8°C | 0.0% | 18.2hPa | 0V | 00:00:00 | 00:00:00 | 00:00:00 | |
| AUTORXJP | 2026-08-31 12:48:33 | 44.07937 | 5.58195 | 8° | 15km/h | 27305m | 6.4m/s | -47.5°C | 0.0% | 19.2hPa | 0V | 00:00:00 | 00:00:00 | 00:00:00 | |
| AUTORXJP | 2026-08-31 12:48:02 | 44.07857 | 5.58277 | 352° | 9km/h | 27129m | 6.2m/s | -47.6°C | 0.0% | 19.8hPa | 0V | 00:00:00 | 00:00:00 | 00:00:00 | |
| AUTORXJP | 2026-08-31 12:47:31 | 44.07784 | 5.58429 | 284° | 20km/h | 26956m | 5.2m/s | -47.8°C | 0.0% | 20.3hPa | 0V | 00:00:00 | 00:00:00 | 00:00:00 | |
| AUTORXJP | 2026-08-31 12:47:00 | 44.07825 | 5.58555 | 209° | 11km/h | 26775m | 6.9m/s | -47.5°C | 0.0% | 20.9hPa | 0V | 00:00:00 | 00:00:00 | 00:00:00 | |
| AUTORXJP | 2026-08-31 12:46:29 | 44.07926 | 5.58557 | 197° | 5km/h | 26598m | 4.8m/s | -46.9°C | 0.0% | 21.4hPa | 0V | 00:00:00 | 00:00:00 | 00:00:00 | |
| AUTORXJP | 2026-08-31 12:45:58 | 44.08025 | 5.58448 | 160° | 13km/h | 26422m | 6.4m/s | -46.3°C | 0.0% | 22.0hPa | 0V | 00:00:00 | 00:00:00 | 00:00:00 | |
| AUTORXJP | 2026-08-31 12:45:27 | 44.08005 | 5.58346 | 42° | 15km/h | 26244m | 7.3m/s | -45.9°C | 0.0% | 22.6hPa | 0V | 00:00:00 | 00:00:00 | 00:00:00 | |
| AUTORXJP | 2026-08-31 12:44:56 | 44.08044 | 5.58307 | 160° | 5km/h | 26067m | 5.0m/s | -45.8°C | 0.0% | 23.2hPa | 0V | 00:00:00 | 00:00:00 | 00:00:00 | |
| AUTORXJP | 2026-08-31 12:44:24 | 44.08058 | 5.58324 | 3° | 0km/h | 25889m | 6.9m/s | -46.6°C | 0.0% | 23.9hPa | 0V | 00:00:00 | 00:00:00 | 00:00:00 | |
| AUTORXJP | 2026-08-31 12:43:53 | 44.07991 | 5.58374 | 147° | 4km/h | 25708m | 7.7m/s | -48.5°C | 0.0% | 24.5hPa | 0V | 00:00:00 | 00:00:00 | 00:00:00 | |
| AUTORXJP | 2026-08-31 12:43:22 | 44.07935 | 5.58441 | 339° | 5km/h | 25536m | 6.9m/s | -49.2°C | 0.0% | 25.1hPa | 0V | 00:00:00 | 00:00:00 | 00:00:00 | |
| AUTORXJP | 2026-08-31 12:42:51 | 44.07874 | 5.58508 | 327° | 9km/h | 25365m | 4.9m/s | -50.2°C | 0.0% | 25.9hPa | 0V | 00:00:00 | 00:00:00 | 00:00:00 | |
| AUTORXJP | 2026-08-31 12:42:20 | 44.07787 | 5.58620 | 274° | 20km/h | 25194m | 5.2m/s | -50.6°C | 0.0% | 26.5hPa | 0V | 00:00:00 | 00:00:00 | 00:00:00 | |
| AUTORXJP | 2026-08-31 12:41:49 | 44.07724 | 5.58626 | 0° | 5km/h | 25020m | 6.5m/s | -51.7°C | 0.0% | 27.2hPa | 0V | 00:00:00 | 00:00:00 | 00:00:00 | |
| AUTORXJP | 2026-08-31 12:41:18 | 44.07590 | 5.58591 | 62° | 15km/h | 24845m | 5.3m/s | -52.5°C | 0.0% | 28.0hPa | 0V | 00:00:00 | 00:00:00 | 00:00:00 | |
| AUTORXJP | 2026-08-31 12:40:47 | 44.07510 | 5.58517 | 28° | 9km/h | 24670m | 6.5m/s | -52.9°C | 0.0% | 28.8hPa | 0V | 00:00:00 | 00:00:00 | 00:00:00 | |
| AUTORXJP | 2026-08-31 12:40:16 | 44.07364 | 5.58525 | 322° | 20km/h | 24493m | 6.6m/s | -52.7°C | 0.0% | 29.6hPa | 0V | 00:00:00 | 00:00:00 | 00:00:00 | |
| AUTORXJP | 2026-08-31 12:39:45 | 44.07217 | 5.58626 | 283° | 18km/h | 24316m | 7.2m/s | -52.7°C | 0.0% | 30.4hPa | 0V | 00:00:00 | 00:00:00 | 00:00:00 | |
| AUTORXJP | 2026-08-31 12:39:14 | 44.07160 | 5.58704 | 323° | 15km/h | 24142m | 5.3m/s | -52.4°C | 0.0% | 31.2hPa | 0V | 00:00:00 | 00:00:00 | 00:00:00 | |
| AUTORXJP | 2026-08-31 12:38:43 | 44.07155 | 5.58682 | 69° | 2km/h | 23977m | 5.0m/s | -51.7°C | 0.0% | 32.0hPa | 0V | 00:00:00 | 00:00:00 | 00:00:00 | |
| AUTORXJP | 2026-08-31 12:38:12 | 44.07108 | 5.58662 | 14° | 4km/h | 23808m | 4.9m/s | -51.2°C | 0.0% | 32.9hPa | 0V | 00:00:00 | 00:00:00 | 00:00:00 | |
| AUTORXJP | 2026-08-31 12:37:40 | 44.07050 | 5.58633 | 48° | 13km/h | 23637m | 5.0m/s | -51.2°C | 0.0% | 33.7hPa | 0V | 00:00:00 | 00:00:00 | 00:00:00 | |
| AUTORXJP | 2026-08-31 12:37:09 | 44.06941 | 5.58600 | 347° | 20km/h | 23465m | 6.0m/s | -52.1°C | 0.0% | 34.7hPa | 0V | 00:00:00 | 00:00:00 | 00:00:00 | |
| AUTORXJP | 2026-08-31 12:36:38 | 44.06797 | 5.58689 | 316° | 13km/h | 23296m | 7.1m/s | -52.5°C | 0.0% | 35.6hPa | 0V | 00:00:00 | 00:00:00 | 00:00:00 | |
| AUTORXJP | 2026-08-31 12:36:07 | 44.06729 | 5.58813 | 292° | 13km/h | 23129m | 5.1m/s | -52.7°C | 0.0% | 36.5hPa | 0V | 00:00:00 | 00:00:00 | 00:00:00 | |
| AUTORXJP | 2026-08-31 12:35:36 | 44.06673 | 5.58909 | 355° | 13km/h | 22963m | 6.7m/s | -53.4°C | 0.0% | 37.4hPa | 0V | 00:00:00 | 00:00:00 | 00:00:00 | |
| AUTORXJP | 2026-08-31 12:35:05 | 44.06545 | 5.58804 | 18° | 20km/h | 22798m | 4.8m/s | -53.2°C | 0.0% | 38.4hPa | 0V | 00:00:00 | 00:00:00 | 00:00:00 | |
| AUTORXJP | 2026-08-31 12:34:34 | 44.06355 | 5.58642 | 24° | 24km/h | 22641m | 4.5m/s | -52.9°C | 0.0% | 39.4hPa | 0V | 00:00:00 | 00:00:00 | 00:00:00 | |
| AUTORXJP | 2026-08-31 12:34:03 | 44.06201 | 5.58629 | 15° | 20km/h | 22482m | 4.4m/s | -53.4°C | 0.0% | 40.4hPa | 0V | 00:00:00 | 00:00:00 | 00:00:00 | |
| AUTORXJP | 2026-08-31 12:33:32 | 44.06022 | 5.58675 | 327° | 18km/h | 22322m | 5.3m/s | -53.7°C | 0.0% | 41.4hPa | 0V | 00:00:00 | 00:00:00 | 00:00:00 | |
| AUTORXJP | 2026-08-31 12:33:01 | 44.05893 | 5.58835 | 317° | 33km/h | 22163m | 4.1m/s | -53.7°C | 0.0% | 42.4hPa | 0V | 00:00:00 | 00:00:00 | 00:00:00 | |
| AUTORXJP | 2026-08-31 12:32:30 | 44.05780 | 5.58962 | 331° | 31km/h | 22000m | 4.2m/s | -53.9°C | 0.0% | 43.5hPa | 0V | 00:00:00 | 00:00:00 | 00:00:00 | |
| AUTORXJP | 2026-08-31 12:31:59 | 44.05701 | 5.59005 | 317° | 13km/h | 21844m | 6.3m/s | -53.8°C | 0.0% | 44.6hPa | 0V | 00:00:00 | 00:00:00 | 00:00:00 | |
| AUTORXJP | 2026-08-31 12:31:28 | 44.05699 | 5.59091 | 221° | 13km/h | 21686m | 6.5m/s | -53.8°C | 0.0% | 45.7hPa | 0V | 00:00:00 | 00:00:00 | 00:00:00 | |
| AUTORXJP | 2026-08-31 12:30:57 | 44.05751 | 5.59129 | 240° | 7km/h | 21520m | 6.0m/s | -53.6°C | 0.0% | 46.9hPa | 0V | 00:00:00 | 00:00:00 | 00:00:00 | |
| AUTORXJP | 2026-08-31 12:30:25 | 44.05738 | 5.59107 | 342° | 15km/h | 21358m | 4.4m/s | -53.8°C | 0.0% | 48.0hPa | 0V | 00:00:00 | 00:00:00 | 00:00:00 | |
| AUTORXJP | 2026-08-31 12:29:54 | 44.05622 | 5.59213 | 328° | 29km/h | 21188m | 3.3m/s | -54.0°C | 0.0% | 49.3hPa | 0V | 00:00:00 | 00:00:00 | 00:00:00 | |
| AUTORXJP | 2026-08-31 12:29:23 | 44.05459 | 5.59359 | 334° | 24km/h | 21027m | 4.0m/s | -54.0°C | 0.0% | 50.6hPa | 0V | 00:00:00 | 00:00:00 | 00:00:00 | |
| AUTORXJP | 2026-08-31 12:28:52 | 44.05322 | 5.59500 | 306° | 13km/h | 20871m | 6.0m/s | -54.2°C | 0.0% | 51.8hPa | 0V | 00:00:00 | 00:00:00 | 00:00:00 | |
| AUTORXJP | 2026-08-31 12:28:21 | 44.05252 | 5.59597 | 224° | 4km/h | 20717m | 5.6m/s | -53.7°C | 0.0% | 53.1hPa | 0V | 00:00:00 | 00:00:00 | 00:00:00 | |
| AUTORXJP | 2026-08-31 12:27:50 | 44.05246 | 5.59585 | 130° | 5km/h | 20559m | 5.2m/s | -53.8°C | 0.0% | 54.4hPa | 0V | 00:00:00 | 00:00:00 | 00:00:00 | |
| AUTORXJP | 2026-08-31 12:27:19 | 44.05237 | 5.59492 | 84° | 11km/h | 20405m | 6.2m/s | -54.1°C | 0.0% | 55.7hPa | 0V | 00:00:00 | 00:00:00 | 00:00:00 | |
| AUTORXJP | 2026-08-31 12:26:48 | 44.05238 | 5.59354 | 75° | 11km/h | 20250m | 6.2m/s | -54.9°C | 0.0% | 57.1hPa | 0V | 00:00:00 | 00:00:00 | 00:00:00 | |
| AUTORXJP | 2026-08-31 12:26:17 | 44.05208 | 5.59267 | 61° | 13km/h | 20095m | 3.3m/s | -55.2°C | 0.0% | 58.5hPa | 0V | 00:00:00 | 00:00:00 | 00:00:00 | |
| AUTORXJP | 2026-08-31 12:25:46 | 44.05188 | 5.59062 | 72° | 18km/h | 19945m | 5.6m/s | -55.7°C | 0.0% | 59.9hPa | 0V | 00:00:00 | 00:00:00 | 00:00:00 | |
| AUTORXJP | 2026-08-31 12:25:15 | 44.05098 | 5.58871 | 27° | 24km/h | 19781m | 5.7m/s | -55.8°C | 0.0% | 61.4hPa | 0V | 00:00:00 | 00:00:00 | 00:00:00 | |
| AUTORXJP | 2026-08-31 12:24:44 | 44.04966 | 5.58761 | 6° | 20km/h | 19617m | 4.7m/s | -55.6°C | 0.0% | 63.0hPa | 0V | 00:00:00 | 00:00:00 | 00:00:00 | |
| AUTORXJP | 2026-08-31 12:24:13 | 44.04920 | 5.58735 | 36° | 4km/h | 19461m | 6.3m/s | -55.1°C | 0.0% | 64.6hPa | 0V | 00:00:00 | 00:00:00 | 00:00:00 | |
| AUTORXJP | 2026-08-31 12:23:42 | 44.04980 | 5.58719 | 132° | 15km/h | 19307m | 4.3m/s | -54.5°C | 0.0% | 66.1hPa | 0V | 00:00:00 | 00:00:00 | 00:00:00 | |
| AUTORXJP | 2026-08-31 12:23:10 | 44.05042 | 5.58500 | 96° | 29km/h | 19150m | 4.5m/s | -54.7°C | 0.0% | 67.8hPa | 0V | 00:00:00 | 00:00:00 | 00:00:00 | |
| AUTORXJP | 2026-08-31 12:22:39 | 44.05017 | 5.58143 | 62° | 27km/h | 19001m | 3.6m/s | -55.8°C | 0.0% | 69.3hPa | 0V | 00:00:00 | 00:00:00 | 00:00:00 | |
| AUTORXJP | 2026-08-31 12:22:08 | 44.05029 | 5.57791 | 112° | 29km/h | 18848m | 4.3m/s | -55.2°C | 0.0% | 71.0hPa | 0V | 00:00:00 | 00:00:00 | 00:00:00 | |
| AUTORXJP | 2026-08-31 12:21:37 | 44.05061 | 5.57392 | 89° | 42km/h | 18700m | 4.0m/s | -55.5°C | 0.0% | 72.7hPa | 0V | 00:00:00 | 00:00:00 | 00:00:00 | |
| AUTORXJP | 2026-08-31 12:21:06 | 44.04963 | 5.56985 | 57° | 42km/h | 18550m | 5.7m/s | -55.8°C | 0.0% | 74.4hPa | 0V | 00:00:00 | 00:00:00 | 00:00:00 | |
| AUTORXJP | 2026-08-31 12:20:04 | 44.04482 | 5.56471 | 22° | 24km/h | 18259m | 4.5m/s | -56.1°C | 0.0% | 77.9hPa | 0V | 00:00:00 | 00:00:00 | 00:00:00 | |
| AUTORXJP | 2026-08-31 12:19:33 | 44.04342 | 5.56308 | 46° | 26km/h | 18107m | 4.7m/s | -56.5°C | 0.0% | 79.8hPa | 0V | 00:00:00 | 00:00:00 | 00:00:00 | |
| AUTORXJP | 2026-08-31 12:19:02 | 44.04259 | 5.56173 | 82° | 15km/h | 17956m | 5.4m/s | -56.6°C | 0.0% | 81.7hPa | 0V | 00:00:00 | 00:00:00 | 00:00:00 | |
| AUTORXJP | 2026-08-31 12:18:32 | 44.04253 | 5.56008 | 120° | 24km/h | 17808m | 5.7m/s | -56.0°C | 0.0% | 83.6hPa | 0V | 00:00:00 | 00:00:00 | 00:00:00 | |
| AUTORXJP | 2026-08-31 12:18:01 | 44.04317 | 5.55742 | 99° | 33km/h | 17658m | 6.3m/s | -56.3°C | 0.0% | 85.6hPa | 0V | 00:00:00 | 00:00:00 | 00:00:00 | |
| AUTORXJP | 2026-08-31 12:17:29 | 44.04357 | 5.55353 | 87° | 46km/h | 17509m | 5.8m/s | -57.3°C | 0.0% | 87.6hPa | 0V | 00:00:00 | 00:00:00 | 00:00:00 | |
| AUTORXJP | 2026-08-31 12:16:58 | 44.04356 | 5.54849 | 84° | 49km/h | 17360m | 6.4m/s | -59.1°C | 0.0% | 89.7hPa | 0V | 00:00:00 | 00:00:00 | 00:00:00 | |
| AUTORXJP | 2026-08-31 12:16:27 | 44.04237 | 5.54225 | 66° | 58km/h | 17210m | 4.7m/s | -59.1°C | 0.0% | 91.9hPa | 0V | 00:00:00 | 00:00:00 | 00:00:00 | |
| AUTORXJP | 2026-08-31 12:15:55 | 44.04044 | 5.53580 | 70° | 62km/h | 17065m | 4.5m/s | -58.5°C | 0.0% | 94.0hPa | 0V | 00:00:00 | 00:00:00 | 00:00:00 |